createdAt,value
2018-05-23T00:02:08.227Z,17.20
2018-05-23T00:04:38.689Z,17.10
2018-05-23T00:07:09.874Z,17.00
2018-05-23T00:09:40.418Z,17.00
2018-05-23T00:12:10.845Z,16.90
2018-05-23T00:14:41.374Z,16.90
2018-05-23T00:17:11.871Z,16.80
2018-05-23T00:19:42.392Z,16.80
2018-05-23T00:22:13.581Z,16.80
2018-05-23T00:24:44.139Z,16.70
2018-05-23T00:27:15.376Z,16.60
2018-05-23T00:29:46.658Z,16.60
2018-05-23T00:32:17.096Z,16.60
2018-05-23T00:34:47.551Z,16.50
2018-05-23T00:37:17.980Z,16.50
2018-05-23T00:39:48.578Z,16.40
2018-05-23T00:42:18.968Z,16.40
2018-05-23T00:44:50.352Z,16.40
2018-05-23T00:47:20.785Z,16.40
2018-05-23T00:49:51.273Z,16.40
2018-05-23T00:52:22.447Z,16.40
2018-05-23T00:55:10.571Z,16.30
2018-05-23T00:57:41.878Z,16.30
2018-05-23T01:00:13.357Z,16.30
2018-05-23T01:02:43.868Z,16.20
2018-05-23T01:05:14.338Z,16.30
2018-05-23T01:07:44.881Z,16.20
2018-05-23T01:10:15.405Z,16.20
2018-05-23T01:12:45.827Z,16.20
2018-05-23T01:15:16.352Z,16.10
2018-05-23T01:17:46.790Z,16.00
2018-05-23T01:20:17.289Z,16.00
2018-05-23T01:22:48.481Z,15.90
2018-05-23T01:25:18.986Z,15.80
2018-05-23T01:27:49.413Z,15.80
2018-05-23T01:30:19.958Z,15.80
2018-05-23T01:32:50.390Z,15.70
2018-05-23T01:35:20.858Z,15.70
2018-05-23T01:37:52.064Z,15.60
2018-05-23T01:40:22.545Z,15.60
2018-05-23T01:42:53.687Z,15.60
2018-05-23T01:45:24.967Z,15.60
2018-05-23T01:47:55.382Z,15.50
2018-05-23T01:50:25.911Z,15.50
2018-05-23T01:52:56.351Z,15.50
2018-05-23T01:55:26.895Z,15.50
2018-05-23T01:57:57.365Z,15.40
2018-05-23T02:00:27.846Z,15.40
2018-05-23T02:02:58.321Z,15.30
2018-05-23T02:05:29.580Z,15.30
2018-05-23T02:08:00.000Z,15.30
2018-05-23T02:10:31.199Z,15.30
2018-05-23T02:13:01.691Z,15.20
2018-05-23T02:15:32.183Z,15.20
2018-05-23T02:18:02.592Z,15.20
2018-05-23T02:20:33.113Z,15.10
2018-05-23T02:23:03.540Z,15.10
2018-05-23T02:25:34.074Z,15.00
2018-05-23T02:28:04.577Z,15.00
2018-05-23T02:30:35.037Z,15.00
2018-05-23T02:33:05.481Z,14.90
2018-05-23T02:35:35.998Z,15.00
2018-05-23T02:38:07.230Z,14.90
2018-05-23T02:40:37.832Z,14.90
2018-05-23T02:43:08.283Z,14.90
2018-05-23T02:45:38.756Z,14.80
2018-05-23T02:48:09.189Z,14.80
2018-05-23T02:50:39.653Z,14.80
2018-05-23T02:53:10.092Z,14.80
2018-05-23T02:55:40.717Z,14.70
2018-05-23T02:58:11.184Z,14.70
2018-05-23T03:00:41.719Z,14.60
2018-05-23T03:03:12.212Z,14.50
2018-05-23T03:05:42.807Z,14.50
2018-05-23T03:08:13.243Z,14.50
2018-05-23T03:10:43.837Z,14.40
2018-05-23T03:13:15.017Z,14.40
2018-05-23T03:15:45.570Z,14.40
2018-05-23T03:18:16.010Z,14.40
2018-05-23T03:20:46.577Z,14.40
2018-05-23T03:23:17.045Z,14.40
2018-05-23T03:25:48.301Z,14.30
2018-05-23T03:28:18.713Z,14.30
2018-05-23T03:30:49.244Z,14.40
2018-05-23T03:33:19.726Z,14.40
2018-05-23T03:35:50.290Z,14.40
2018-05-23T03:38:20.726Z,14.40
2018-05-23T03:40:51.233Z,14.40
2018-05-23T03:43:21.667Z,14.40
2018-05-23T03:45:52.229Z,14.50
2018-05-23T03:48:22.688Z,14.50
2018-05-23T03:50:53.246Z,14.50
2018-05-23T03:56:28.577Z,14.60
2018-05-23T03:59:02.842Z,14.60
2018-05-23T04:01:50.993Z,14.60
2018-05-23T04:07:39.809Z,14.70
2018-05-23T04:10:11.060Z,14.70
2018-05-23T04:12:41.574Z,14.60
2018-05-23T04:15:12.014Z,14.70
2018-05-23T04:17:43.303Z,14.80
2018-05-23T04:20:13.893Z,14.80
2018-05-23T04:22:44.434Z,14.80
2018-05-23T04:25:14.930Z,14.90
2018-05-23T04:27:50.015Z,15.00
2018-05-23T04:33:25.221Z,15.00
2018-05-23T04:35:55.187Z,15.00
2018-05-23T04:38:25.178Z,15.10
2018-05-23T04:40:55.165Z,15.10
2018-05-23T04:43:25.185Z,15.10
2018-05-23T04:45:55.265Z,15.20
2018-05-23T04:48:25.450Z,15.20
2018-05-23T04:50:55.814Z,15.30
2018-05-23T04:53:26.469Z,15.30
2018-05-23T04:55:56.866Z,15.40
2018-05-23T04:58:27.335Z,15.50
2018-05-23T05:00:57.427Z,15.50
2018-05-23T05:03:27.502Z,15.50
2018-05-23T05:05:58.257Z,15.70
2018-05-23T05:08:28.307Z,15.70
2018-05-23T05:10:58.262Z,15.70
2018-05-23T05:13:28.271Z,15.80
2018-05-23T05:15:58.235Z,15.90
2018-05-23T05:18:28.332Z,15.90
2018-05-23T05:20:58.302Z,16.00
2018-05-23T05:23:28.309Z,16.10
2018-05-23T05:25:58.294Z,16.10
2018-05-23T05:28:29.109Z,16.30
2018-05-23T05:30:59.064Z,16.30
2018-05-23T05:33:29.120Z,16.40
2018-05-23T05:35:59.087Z,16.50
2018-05-23T05:38:29.109Z,16.50
2018-05-23T05:40:59.115Z,16.60
2018-05-23T05:43:29.092Z,16.60
2018-05-23T05:45:59.127Z,16.70
2018-05-23T05:48:29.101Z,16.80
2018-05-23T05:50:59.276Z,16.80
2018-05-23T05:53:29.219Z,16.90
2018-05-23T05:55:59.285Z,17.00
2018-05-23T05:58:29.316Z,17.10
2018-05-23T06:00:59.327Z,17.20
2018-05-23T06:03:29.314Z,17.20
2018-05-23T06:06:00.094Z,17.40
2018-05-23T06:08:30.837Z,17.40
2018-05-23T06:11:00.869Z,17.40
2018-05-23T06:13:30.865Z,17.50
2018-05-23T06:16:00.913Z,17.50
2018-05-23T06:18:30.925Z,17.60
2018-05-23T06:21:01.010Z,17.60
2018-05-23T06:23:31.779Z,17.80
2018-05-23T06:26:01.786Z,17.80
2018-05-23T06:28:31.773Z,17.90
2018-05-23T06:31:02.558Z,18.00
2018-05-23T06:33:32.504Z,18.00
2018-05-23T06:36:02.827Z,18.10
2018-05-23T06:38:32.934Z,18.20
2018-05-23T06:41:02.948Z,18.30
2018-05-23T06:43:32.969Z,18.30
2018-05-23T06:46:02.928Z,18.40
2018-05-23T06:48:32.991Z,18.40
2018-05-23T06:51:03.018Z,18.50
2018-05-23T06:53:33.034Z,18.50
2018-05-23T06:56:04.560Z,18.50
2018-05-23T06:58:34.533Z,18.50
2018-05-23T07:01:04.571Z,18.60
2018-05-23T07:03:34.553Z,18.70
2018-05-23T07:06:05.333Z,18.90
2018-05-23T07:08:35.285Z,18.80
2018-05-23T07:11:05.363Z,19.00
2018-05-23T07:13:35.330Z,19.10
2018-05-23T07:16:05.363Z,19.20
2018-05-23T07:18:35.309Z,19.30
2018-05-23T07:21:05.311Z,19.40
2018-05-23T07:23:36.031Z,19.50
2018-05-23T07:26:06.042Z,19.50
2018-05-23T07:28:36.045Z,19.60
2018-05-23T07:31:06.040Z,19.70
2018-05-23T07:33:36.103Z,19.80
2018-05-23T07:36:06.863Z,19.90
2018-05-23T07:38:36.887Z,19.90
2018-05-23T07:41:06.892Z,20.00
2018-05-23T07:43:36.851Z,20.10
2018-05-23T07:46:07.662Z,20.30
2018-05-23T07:48:37.618Z,20.30
2018-05-23T07:51:09.324Z,20.40
2018-05-23T07:53:39.315Z,20.40
2018-05-23T07:56:09.334Z,20.50
2018-05-23T07:58:39.750Z,20.60
2018-05-23T08:01:10.149Z,20.70
2018-05-23T08:03:42.961Z,20.80
2018-05-23T08:06:13.473Z,20.80
2018-05-23T08:08:43.879Z,20.90
2018-05-23T08:11:14.370Z,21.00
2018-05-23T08:13:44.792Z,21.10
2018-05-23T08:16:15.457Z,21.20
2018-05-23T08:18:55.860Z,21.30
2018-05-23T08:21:27.269Z,21.50
2018-05-23T08:23:59.785Z,21.50
2018-05-23T08:26:30.352Z,21.50
2018-05-23T08:29:01.561Z,21.70
2018-05-23T08:31:31.916Z,21.70
2018-05-23T08:34:01.943Z,21.80
2018-05-23T08:36:32.096Z,21.90
2018-05-23T08:39:01.964Z,22.00
2018-05-23T08:41:31.973Z,22.00
2018-05-23T08:44:01.965Z,22.10
2018-05-23T08:46:32.009Z,22.20
2018-05-23T08:49:02.413Z,22.30
2018-05-23T08:51:32.555Z,22.40
2018-05-23T08:54:02.510Z,22.50
2018-05-23T08:56:32.517Z,22.60
2018-05-23T08:59:02.489Z,22.70
2018-05-23T09:01:33.281Z,22.90
2018-05-23T09:04:03.233Z,22.90
2018-05-23T09:06:33.230Z,23.00
2018-05-23T09:09:03.213Z,23.10
2018-05-23T09:11:33.198Z,23.20
2018-05-23T09:14:03.149Z,23.30
2018-05-23T09:16:33.147Z,23.40
2018-05-23T09:19:03.127Z,23.50
2018-05-23T09:21:33.138Z,23.60
2018-05-23T09:24:03.871Z,23.70
2018-05-23T09:26:34.631Z,23.80
2018-05-23T09:29:04.619Z,23.70
2018-05-23T09:31:35.389Z,23.90
2018-05-23T09:34:05.357Z,23.90
2018-05-23T09:36:36.124Z,24.00
2018-05-23T09:39:07.012Z,24.00
2018-05-23T09:41:36.978Z,24.10
2018-05-23T09:44:06.944Z,24.10
2018-05-23T09:46:36.955Z,24.20
2018-05-23T09:49:06.934Z,24.20
2018-05-23T09:51:36.938Z,24.30
2018-05-23T09:54:07.690Z,24.40
2018-05-23T09:56:37.682Z,24.40
2018-05-23T09:59:07.636Z,24.40
2018-05-23T10:01:37.687Z,24.60
2018-05-23T10:04:07.645Z,24.70
2018-05-23T10:06:37.677Z,24.70
2018-05-23T10:09:07.685Z,24.90
2018-05-23T10:11:37.681Z,25.00
2018-05-23T10:14:07.725Z,25.10
2018-05-23T10:16:37.750Z,25.10
2018-05-23T10:19:07.710Z,25.20
2018-05-23T10:21:38.475Z,25.40
2018-05-23T10:24:08.438Z,25.40
2018-05-23T10:26:38.430Z,25.50
2018-05-23T10:29:08.392Z,25.60
2018-05-23T10:31:38.425Z,25.70
2018-05-23T10:34:09.144Z,26.00
2018-05-23T10:36:39.937Z,26.10
2018-05-23T10:39:09.926Z,26.10
2018-05-23T10:41:39.942Z,26.20
2018-05-23T10:44:09.921Z,26.20
2018-05-23T10:46:39.934Z,26.20
2018-05-23T10:49:10.672Z,26.30
2018-05-23T10:51:41.465Z,26.30
2018-05-23T10:54:11.428Z,26.30
2018-05-23T10:56:42.228Z,26.50
2018-05-23T10:59:12.193Z,26.40
2018-05-23T11:01:42.203Z,26.50
2018-05-23T11:04:12.187Z,26.50
2018-05-23T11:06:42.185Z,26.60
2018-05-23T11:09:12.168Z,26.70
2018-05-23T11:11:42.207Z,26.70
2018-05-23T11:14:12.182Z,26.70
2018-05-23T11:16:42.963Z,26.80
2018-05-23T11:19:13.114Z,26.80
2018-05-23T11:21:43.904Z,27.00
2018-05-23T11:24:13.866Z,27.00
2018-05-23T11:26:43.862Z,27.00
2018-05-23T11:29:13.814Z,27.10
2018-05-23T11:31:44.582Z,27.20
2018-05-23T11:34:14.579Z,27.20
2018-05-23T11:36:44.578Z,27.30
2018-05-23T11:39:15.332Z,27.50
2018-05-23T11:41:45.327Z,27.40
2018-05-23T11:44:16.068Z,27.70
2018-05-23T11:46:47.268Z,27.90
2018-05-23T11:49:18.133Z,28.00
2018-05-23T11:51:48.600Z,28.10
2018-05-23T11:54:19.831Z,28.30
2018-05-23T11:56:50.335Z,28.30
2018-05-23T11:59:20.820Z,28.50
2018-05-23T12:01:52.099Z,28.80
2018-05-23T12:04:23.396Z,29.00
2018-05-23T12:06:53.805Z,28.90
2018-05-23T12:09:24.295Z,29.10
2018-05-23T12:11:54.801Z,29.10
2018-05-23T12:14:26.012Z,29.10
2018-05-23T12:16:56.636Z,29.10
2018-05-23T12:19:26.781Z,29.20
2018-05-23T12:21:56.845Z,29.10
2018-05-23T12:24:27.628Z,29.10
2018-05-23T12:26:57.600Z,29.10
2018-05-23T12:29:28.380Z,29.30
2018-05-23T12:31:58.365Z,29.30
2018-05-23T12:34:29.157Z,29.20
2018-05-23T12:36:59.113Z,29.20
2018-05-23T12:39:29.121Z,29.00
2018-05-23T12:41:59.927Z,28.60
2018-05-23T12:44:29.957Z,28.60
2018-05-23T12:46:59.933Z,28.70
2018-05-23T12:49:29.979Z,28.90
2018-05-23T12:51:59.996Z,28.90
2018-05-23T12:54:30.017Z,28.90
2018-05-23T12:57:01.486Z,28.90
2018-05-23T12:59:31.481Z,28.90
2018-05-23T13:02:01.467Z,28.90
2018-05-23T13:04:31.512Z,29.00
2018-05-23T13:07:01.485Z,29.00
2018-05-23T13:09:31.477Z,29.00
2018-05-23T13:12:02.211Z,29.10
2018-05-23T13:14:32.988Z,29.20
2018-05-23T13:17:03.035Z,29.20
2018-05-23T13:19:33.018Z,29.20
2018-05-23T13:22:02.997Z,29.30
2018-05-23T13:24:33.746Z,29.40
2018-05-23T13:27:03.800Z,29.40
2018-05-23T13:29:34.652Z,29.50
2018-05-23T13:32:04.673Z,29.50
2018-05-23T13:34:34.660Z,29.50
2018-05-23T13:37:04.671Z,29.50
2018-05-23T13:39:34.684Z,29.40
2018-05-23T13:42:04.675Z,29.40
2018-05-23T13:44:34.695Z,29.50
2018-05-23T13:47:04.684Z,29.70
2018-05-23T13:49:35.451Z,29.70
2018-05-23T13:52:05.541Z,29.70
2018-05-23T13:54:35.534Z,29.70
2018-05-23T13:57:05.547Z,29.80
2018-05-23T13:59:35.621Z,29.90
2018-05-23T14:02:05.606Z,29.90
2018-05-23T14:04:36.371Z,29.90
2018-05-23T14:07:06.347Z,29.90
2018-05-23T14:09:37.215Z,29.60
2018-05-23T14:12:07.130Z,29.60
2018-05-23T14:14:37.910Z,29.70
2018-05-23T14:17:07.894Z,29.70
2018-05-23T14:19:37.901Z,29.70
2018-05-23T14:22:07.879Z,29.70
2018-05-23T14:24:37.868Z,29.80
2018-05-23T14:27:07.830Z,29.80
2018-05-23T14:29:38.589Z,29.90
2018-05-23T14:32:08.555Z,29.80
2018-05-23T14:34:38.579Z,29.80
2018-05-23T14:37:09.418Z,29.80
2018-05-23T14:39:39.469Z,29.90
2018-05-23T14:42:09.469Z,30.00
2018-05-23T14:44:40.246Z,30.40
2018-05-23T14:47:10.301Z,30.40
2018-05-23T14:49:40.287Z,30.70
2018-05-23T14:52:10.266Z,30.80
2018-05-23T14:54:40.285Z,30.90
2018-05-23T14:57:10.262Z,30.90
2018-05-23T14:59:40.266Z,31.00
2018-05-23T15:02:10.242Z,31.30
2018-05-23T15:04:40.254Z,31.40
2018-05-23T15:07:10.279Z,31.50
2018-05-23T15:09:40.283Z,31.70
2018-05-23T15:12:10.281Z,31.70
2018-05-23T15:14:40.380Z,31.70
2018-05-23T15:17:10.419Z,31.80
2018-05-23T15:19:40.470Z,31.80
2018-05-23T15:22:10.539Z,31.80
2018-05-23T15:24:41.351Z,32.00
2018-05-23T15:27:11.426Z,32.00
2018-05-23T15:29:41.381Z,32.10
2018-05-23T15:32:11.340Z,32.20
2018-05-23T15:34:41.343Z,32.10
2018-05-23T15:37:12.089Z,32.10
2018-05-23T15:39:42.880Z,32.10
2018-05-23T15:42:12.838Z,32.00
2018-05-23T15:44:42.993Z,32.00
2018-05-23T15:47:13.782Z,31.90
2018-05-23T15:49:44.551Z,31.90
2018-05-23T15:52:14.890Z,31.80
2018-05-23T15:54:46.294Z,31.70
2018-05-23T15:57:16.890Z,31.60
2018-05-23T15:59:47.550Z,31.60
2018-05-23T16:02:18.137Z,31.50
2018-05-23T16:04:48.762Z,31.50
2018-05-23T16:07:19.485Z,31.50
2018-05-23T16:09:50.461Z,31.50
2018-05-23T16:12:20.471Z,31.40
2018-05-23T16:14:50.513Z,31.40
2018-05-23T16:17:21.657Z,31.20
2018-05-23T16:19:51.749Z,31.20
2018-05-23T16:22:21.712Z,31.20
2018-05-23T16:24:51.748Z,31.10
2018-05-23T16:27:21.747Z,31.00
2018-05-23T16:29:52.176Z,30.90
2018-05-23T16:32:22.759Z,30.80
2018-05-23T16:34:53.261Z,30.80
2018-05-23T16:37:24.455Z,30.80
2018-05-23T16:39:54.519Z,30.80
2018-05-23T16:42:24.526Z,30.80
2018-05-23T16:44:54.546Z,30.90
2018-05-23T16:47:24.648Z,31.00
2018-05-23T16:49:55.410Z,31.00
2018-05-23T16:52:25.385Z,30.90
2018-05-23T16:54:56.155Z,30.80
2018-05-23T16:57:26.132Z,30.70
2018-05-23T16:59:56.160Z,30.50
2018-05-23T17:02:26.145Z,30.20
2018-05-23T17:04:56.951Z,29.60
2018-05-23T17:07:27.538Z,29.60
2018-05-23T17:09:57.571Z,29.40
2018-05-23T17:12:27.556Z,29.30
2018-05-23T17:14:58.358Z,29.00
2018-05-23T17:17:28.339Z,29.00
2018-05-23T17:19:58.334Z,28.80
2018-05-23T17:22:29.103Z,28.50
2018-05-23T17:24:59.133Z,28.50
2018-05-23T17:27:29.180Z,28.20
2018-05-23T17:29:59.129Z,28.00
2018-05-23T17:32:29.102Z,27.80
2018-05-23T17:34:59.158Z,27.60
2018-05-23T17:37:29.154Z,27.50
2018-05-23T17:39:59.195Z,27.30
2018-05-23T17:42:29.257Z,27.10
2018-05-23T17:44:59.273Z,27.00
2018-05-23T17:47:29.298Z,26.80
2018-05-23T17:49:59.287Z,26.60
2018-05-23T17:52:29.311Z,26.40
2018-05-23T17:54:59.327Z,26.30
2018-05-23T17:57:29.297Z,26.10
2018-05-23T18:00:00.086Z,25.90
2018-05-23T18:02:30.090Z,25.90
2018-05-23T18:05:00.092Z,25.80
2018-05-23T18:07:30.059Z,25.70
2018-05-23T18:10:00.097Z,25.50
2018-05-23T18:12:30.821Z,25.40
2018-05-23T18:15:00.827Z,25.30
2018-05-23T18:17:30.774Z,25.30
2018-05-23T18:20:00.789Z,25.20
2018-05-23T18:22:30.757Z,25.10
2018-05-23T18:25:00.779Z,25.00
2018-05-23T18:27:30.890Z,25.00
2018-05-23T18:30:00.894Z,24.80
2018-05-23T18:32:30.863Z,24.70
2018-05-23T18:35:01.935Z,24.50
2018-05-23T18:37:31.911Z,24.50
2018-05-23T18:40:02.686Z,24.40
2018-05-23T18:42:32.666Z,24.30
2018-05-23T18:45:02.755Z,24.20
2018-05-23T18:47:32.769Z,24.10
2018-05-23T18:50:02.742Z,24.00
2018-05-23T18:52:32.779Z,23.90
2018-05-23T18:55:02.778Z,23.90
2018-05-23T18:57:32.791Z,23.80
2018-05-23T19:00:02.803Z,23.70
2018-05-23T19:02:32.794Z,23.60
2018-05-23T19:05:03.558Z,23.40
2018-05-23T19:07:33.559Z,23.50
2018-05-23T19:10:03.547Z,23.40
2018-05-23T19:12:33.630Z,23.30
2018-05-23T19:15:03.647Z,23.20
2018-05-23T19:17:33.676Z,23.20
2018-05-23T19:20:03.635Z,23.00
2018-05-23T19:22:33.692Z,23.00
2018-05-23T19:25:03.659Z,22.90
2018-05-23T19:27:34.432Z,22.70
2018-05-23T19:30:04.486Z,22.70
2018-05-23T19:32:34.541Z,22.60
2018-05-23T19:35:04.547Z,22.50
2018-05-23T19:37:35.306Z,22.40
2018-05-23T19:40:05.282Z,22.40
2018-05-23T19:42:35.296Z,22.30
2018-05-23T19:45:05.313Z,22.20
2018-05-23T19:47:36.174Z,22.10
2018-05-23T19:50:06.147Z,22.10
2018-05-23T19:52:36.292Z,22.00
2018-05-23T19:55:06.359Z,22.00
2018-05-23T19:57:36.377Z,21.90
2018-05-23T20:00:06.373Z,21.80
2018-05-23T20:02:36.373Z,21.80
2018-05-23T20:05:06.367Z,21.70
2018-05-23T20:07:36.388Z,21.60
2018-05-23T20:10:07.190Z,21.50
2018-05-23T20:12:37.181Z,21.50
2018-05-23T20:15:07.358Z,21.40
2018-05-23T20:17:37.434Z,21.40
2018-05-23T20:20:07.426Z,21.30
2018-05-23T20:22:38.195Z,21.20
2018-05-23T20:25:09.694Z,21.10
2018-05-23T20:27:40.783Z,21.00
2018-05-23T20:30:10.815Z,21.00
2018-05-23T20:32:40.879Z,21.00
2018-05-23T20:35:11.264Z,20.90
2018-05-23T20:37:41.590Z,20.80
2018-05-23T20:40:11.987Z,20.70
2018-05-23T20:42:42.382Z,20.70
2018-05-23T20:45:13.559Z,20.50
2018-05-23T20:47:44.547Z,20.50
2018-05-23T20:50:14.559Z,20.50
2018-05-23T20:52:44.666Z,20.40
2018-05-23T20:55:14.639Z,20.30
2018-05-23T20:57:44.662Z,20.30
2018-05-23T21:00:14.606Z,20.30
2018-05-23T21:02:46.105Z,20.40
2018-05-23T21:05:16.726Z,20.40
2018-05-23T21:07:47.256Z,20.50
2018-05-23T21:10:18.390Z,20.50
2018-05-23T21:12:49.385Z,20.50
2018-05-23T21:15:20.312Z,20.40
2018-05-23T21:17:50.810Z,20.40
2018-05-23T21:20:21.225Z,20.30
2018-05-23T21:22:52.472Z,20.20
2018-05-23T21:25:23.728Z,20.30
2018-05-23T21:27:55.093Z,20.30
2018-05-23T21:30:25.528Z,20.30
2018-05-23T21:32:56.694Z,20.30
2018-05-23T21:35:27.102Z,20.30
2018-05-23T21:37:57.539Z,20.20
2018-05-23T21:40:28.428Z,20.10
2018-05-23T21:42:58.994Z,20.00
2018-05-23T21:45:29.338Z,19.90
2018-05-23T21:47:59.771Z,19.80
2018-05-23T21:50:33.693Z,19.80
2018-05-23T21:53:08.608Z,19.90
2018-05-23T21:55:41.351Z,19.70
2018-05-23T21:58:13.218Z,19.50
2018-05-23T22:00:45.451Z,19.40
2018-05-23T22:03:16.039Z,19.30
2018-05-23T22:05:47.946Z,19.10
2018-05-23T22:08:19.779Z,19.00
2018-05-23T22:10:50.945Z,18.90
2018-05-23T22:13:24.006Z,18.90
2018-05-23T22:15:54.575Z,18.80
2018-05-23T22:18:26.633Z,18.70
2018-05-23T22:20:57.620Z,18.70
2018-05-23T22:23:28.079Z,18.70
2018-05-23T22:25:58.447Z,18.60
2018-05-23T22:28:28.897Z,18.60
2018-05-23T22:30:59.428Z,18.50
2018-05-23T22:33:29.961Z,18.40
2018-05-23T22:36:00.438Z,18.30
2018-05-23T22:38:30.969Z,18.30
2018-05-23T22:41:02.259Z,18.20
2018-05-23T22:43:32.778Z,18.10
2018-05-23T22:46:03.267Z,18.10
2018-05-23T22:48:33.803Z,18.10
2018-05-23T22:51:04.950Z,18.00
2018-05-23T22:53:36.186Z,18.00
2018-05-23T22:56:06.693Z,18.00
2018-05-23T22:58:37.246Z,17.90
2018-05-23T23:01:08.392Z,17.80
2018-05-23T23:03:38.865Z,17.80
2018-05-23T23:06:09.323Z,17.70
2018-05-23T23:08:39.870Z,17.70
2018-05-23T23:11:11.097Z,17.60
2018-05-23T23:13:42.388Z,17.60
2018-05-23T23:16:12.826Z,17.50
2018-05-23T23:18:43.369Z,17.50
2018-05-23T23:21:14.659Z,17.50
2018-05-23T23:23:45.207Z,17.50
2018-05-23T23:26:16.477Z,17.40
2018-05-23T23:28:47.723Z,17.40
2018-05-23T23:31:18.567Z,17.30
2018-05-23T23:33:49.846Z,17.30
2018-05-23T23:36:20.466Z,17.30
2018-05-23T23:38:50.961Z,17.20
2018-05-23T23:41:21.425Z,17.20
2018-05-23T23:43:52.275Z,17.20
2018-05-23T23:46:22.745Z,17.10
2018-05-23T23:48:54.025Z,17.00
2018-05-23T23:51:24.478Z,16.90
2018-05-23T23:53:55.780Z,16.90
2018-05-23T23:56:27.009Z,16.80
2018-05-23T23:58:59.042Z,16.80
